GBOOT VNLT-VNLK
Flight info
| Callsign | GBOOT |
|---|---|
| Flight time | N/A |
| Altitude | 5000 |
| Route | |
| Aircraft | DHC6/L-S/U1 |
Departure
| Time | 2025-12-28 20:57 |
|---|---|
| Airport | Langtang Airport (VNLT) |
Arrival
| Time | N/A |
|---|---|
| Airport | Tenzing-Hillary Airport (VNLK) |
| Time | Latitude | Longitude | Altitude | Speed | Heading |
|---|---|---|---|---|---|
| 2025-12-28 20:44 | 28.20035 | 85.58522 | 12769 ft | 0 kts | 238° |
| 2025-12-28 20:54 | 28.20029 | 85.58511 | 12768 ft | 0 kts | 229° |
| 2025-12-28 20:55 | 28.19957 | 85.58589 | 12776 ft | 15 kts | 119° |
| 2025-12-28 20:55 | 28.19872 | 85.58737 | 12793 ft | 11 kts | 292° |
| 2025-12-28 20:55 | 28.19875 | 85.58730 | 12792 ft | 0 kts | 296° |
| 2025-12-28 20:56 | 28.20036 | 85.58398 | 12767 ft | 82 kts | 303° |
| 2025-12-28 20:57 | 28.20591 | 85.56196 | 13642 ft | 105 kts | 277° |
| 2025-12-28 20:57 | 28.20700 | 85.54517 | 14341 ft | 107 kts | 276° |
| 2025-12-28 20:58 | 28.20726 | 85.52823 | 15014 ft | 105 kts | 269° |
| 2025-12-28 20:58 | 28.20674 | 85.51993 | 15188 ft | 108 kts | 266° |
| 2025-12-28 20:59 | 28.20432 | 85.50305 | 15608 ft | 109 kts | 263° |
| 2025-12-28 20:59 | 28.20139 | 85.48574 | 15859 ft | 125 kts | 263° |
| 2025-12-28 21:00 | 28.19640 | 85.46632 | 16091 ft | 136 kts | 244° |
| 2025-12-28 21:00 | 28.18521 | 85.44814 | 16319 ft | 144 kts | 238° |
| 2025-12-28 21:01 | 28.16754 | 85.42015 | 16646 ft | 144 kts | 238° |
| 2025-12-28 21:01 | 28.15231 | 85.40612 | 16841 ft | 146 kts | 208° |
| 2025-12-28 21:02 | 28.14303 | 85.40156 | 16944 ft | 145 kts | 209° |
| 2025-12-28 21:02 | 28.12287 | 85.39830 | 17143 ft | 148 kts | 189° |
| 2025-12-28 21:03 | 28.10240 | 85.39989 | 17319 ft | 152 kts | 167° |
| 2025-12-28 21:03 | 28.08719 | 85.41651 | 17544 ft | 159 kts | 121° |
| 2025-12-28 21:04 | 28.08088 | 85.44045 | 17837 ft | 159 kts | 102° |
| 2025-12-28 21:04 | 28.07725 | 85.46482 | 18056 ft | 157 kts | 101° |
| 2025-12-28 21:05 | 28.07211 | 85.50087 | 18437 ft | 153 kts | 104° |
| 2025-12-28 21:05 | 28.06551 | 85.52330 | 18652 ft | 148 kts | 114° |
| 2025-12-28 21:06 | 28.06198 | 85.53410 | 18751 ft | 147 kts | 114° |
| 2025-12-28 21:06 | 28.05513 | 85.55545 | 18937 ft | 146 kts | 114° |
| 2025-12-28 21:07 | 28.04750 | 85.57693 | 19059 ft | 150 kts | 119° |
| 2025-12-28 21:07 | 28.03829 | 85.59937 | 19060 ft | 163 kts | 124° |
| 2025-12-28 21:08 | 28.02687 | 85.62189 | 19094 ft | 170 kts | 126° |
| 2025-12-28 21:08 | 28.02073 | 85.63359 | 19084 ft | 176 kts | 126° |
| 2025-12-28 21:09 | 27.99951 | 85.67296 | 19030 ft | 189 kts | 126° |